createdAt,value
2018-09-20T00:01:09.846Z,101283.22
2018-09-20T00:03:39.049Z,101280.27
2018-09-20T00:06:08.089Z,101279.58
2018-09-20T00:08:37.056Z,101268.48
2018-09-20T00:11:06.048Z,101270.66
2018-09-20T00:13:35.091Z,101276.35
2018-09-20T00:16:04.086Z,101274.00
2018-09-20T00:18:33.129Z,101271.92
2018-09-20T00:21:02.152Z,101271.20
2018-09-20T00:23:31.675Z,101273.50
2018-09-20T00:26:00.772Z,101268.48
2018-09-20T00:28:29.768Z,101266.86
2018-09-20T00:30:58.819Z,101267.59
2018-09-20T00:33:27.827Z,101273.47
2018-09-20T00:35:56.920Z,101277.91
2018-09-20T00:38:26.248Z,101273.20
2018-09-20T00:40:55.230Z,101276.74
2018-09-20T00:43:24.251Z,101277.87
2018-09-20T00:45:53.219Z,101273.90
2018-09-20T00:48:22.240Z,101282.02
2018-09-20T00:50:51.423Z,101279.78
2018-09-20T00:53:20.542Z,101293.02
2018-09-20T00:55:49.523Z,101290.63
2018-09-20T00:58:18.770Z,101290.61
2018-09-20T01:00:47.885Z,101295.05
2018-09-20T01:03:16.862Z,101298.61
2018-09-20T01:05:45.847Z,101298.27
2018-09-20T01:08:15.047Z,101303.02
2018-09-20T01:10:44.071Z,101303.73
2018-09-20T01:13:13.058Z,101305.83
2018-09-20T01:15:42.064Z,101306.59
2018-09-20T01:18:11.065Z,101306.98
2018-09-20T01:20:40.506Z,101311.17
2018-09-20T01:23:10.479Z,101315.47
2018-09-20T01:25:39.875Z,101320.24
2018-09-20T01:28:09.081Z,101316.50
2018-09-20T01:30:38.468Z,101320.45
2018-09-20T01:33:07.649Z,101318.58
2018-09-20T01:35:36.958Z,101321.41
2018-09-20T01:38:06.247Z,101324.47
2018-09-20T01:40:35.343Z,101325.22
2018-09-20T01:43:04.340Z,101332.88
2018-09-20T01:45:33.307Z,101335.92
2018-09-20T01:48:02.304Z,101329.75
2018-09-20T01:50:31.299Z,101331.31
2018-09-20T01:53:00.707Z,101338.83
2018-09-20T01:55:29.721Z,101340.91
2018-09-20T01:57:58.999Z,101351.55
2018-09-20T02:00:28.002Z,101349.17
2018-09-20T02:02:57.135Z,101357.23
2018-09-20T02:05:26.252Z,101362.53
2018-09-20T02:07:55.470Z,101366.48
2018-09-20T02:10:24.447Z,101369.18
2018-09-20T02:12:53.423Z,101374.13
2018-09-20T02:15:22.632Z,101370.83
2018-09-20T02:17:51.607Z,101378.58
2018-09-20T02:20:20.807Z,101384.62
2018-09-20T02:22:49.780Z,101384.67
2018-09-20T02:25:19.066Z,101385.13
2018-09-20T02:27:48.256Z,101379.45
2018-09-20T02:30:17.753Z,101379.14
2018-09-20T02:32:47.287Z,101379.03
2018-09-20T02:35:16.402Z,101378.57
2018-09-20T02:37:45.516Z,101381.66
2018-09-20T02:40:14.639Z,101385.56
2018-09-20T02:42:44.203Z,101392.22
2018-09-20T02:45:13.526Z,101397.03
2018-09-20T02:47:42.523Z,101398.17
2018-09-20T02:50:11.515Z,101396.02
2018-09-20T02:52:40.478Z,101396.68
2018-09-20T02:55:09.456Z,101394.84
2018-09-20T02:57:38.462Z,101396.24
2018-09-20T03:00:07.659Z,101396.83
2018-09-20T03:02:36.838Z,101393.55
2018-09-20T03:05:06.034Z,101399.30
2018-09-20T03:07:35.218Z,101399.30
2018-09-20T03:10:04.333Z,101396.24
2018-09-20T03:12:33.531Z,101396.77
2018-09-20T03:15:02.526Z,101392.59
2018-09-20T03:17:31.733Z,101396.69
2018-09-20T03:20:00.705Z,101388.62
2018-09-20T03:22:29.677Z,101393.53
2018-09-20T03:24:58.683Z,101401.17
2018-09-20T03:27:27.853Z,101395.45
2018-09-20T03:29:56.863Z,101400.23
2018-09-20T03:32:25.832Z,101397.14
2018-09-20T03:34:54.923Z,101394.28
2018-09-20T03:37:24.223Z,101398.34
2018-09-20T03:39:53.414Z,101398.09
2018-09-20T03:42:22.413Z,101397.76
2018-09-20T03:44:51.378Z,101396.63
2018-09-20T03:47:20.343Z,101395.71
2018-09-20T03:49:49.518Z,101396.53
2018-09-20T03:52:18.491Z,101392.64
2018-09-20T03:54:47.646Z,101394.48
2018-09-20T03:57:16.622Z,101397.80
2018-09-20T03:59:46.130Z,101393.16
2018-09-20T04:02:15.132Z,101397.39
2018-09-20T04:04:44.136Z,101409.51
2018-09-20T04:07:13.109Z,101398.41
2018-09-20T04:09:42.188Z,101406.30
2018-09-20T04:12:11.106Z,101402.02
2018-09-20T04:14:40.120Z,101401.65
2018-09-20T04:17:09.098Z,101397.05
2018-09-20T04:19:38.099Z,101396.17
2018-09-20T04:22:07.308Z,101412.48
2018-09-20T04:24:36.746Z,101408.62
2018-09-20T04:27:05.794Z,101414.72
2018-09-20T04:29:35.145Z,101417.34
2018-09-20T04:32:04.227Z,101419.95
2018-09-20T04:34:33.371Z,101416.06
2018-09-20T04:37:02.354Z,101422.35
2018-09-20T04:39:31.644Z,101414.99
2018-09-20T04:42:00.636Z,101415.69
2018-09-20T04:44:29.615Z,101424.84
2018-09-20T04:46:58.585Z,101423.93
2018-09-20T04:49:27.999Z,101424.45
2018-09-20T04:51:56.998Z,101425.45
2018-09-20T04:54:25.971Z,101419.52
2018-09-20T04:56:55.311Z,101420.08
2018-09-20T04:59:24.975Z,101419.69
2018-09-20T05:01:53.965Z,101427.12
2018-09-20T05:04:22.969Z,101428.53
2018-09-20T05:06:51.976Z,101438.47
2018-09-20T05:09:21.172Z,101436.02
2018-09-20T05:11:50.138Z,101437.25
2018-09-20T05:14:19.308Z,101442.96
2018-09-20T05:16:48.502Z,101439.54
2018-09-20T05:19:17.506Z,101446.41
2018-09-20T05:21:46.595Z,101452.97
2018-09-20T05:24:15.578Z,101457.20
2018-09-20T05:26:44.573Z,101454.12
2018-09-20T05:29:13.595Z,101461.03
2018-09-20T05:31:42.557Z,101461.40
2018-09-20T05:34:11.568Z,101453.91
2018-09-20T05:36:40.546Z,101465.14
2018-09-20T05:39:10.611Z,101467.85
2018-09-20T05:41:39.900Z,101471.27
2018-09-20T05:44:09.304Z,101469.56
2018-09-20T05:46:38.298Z,101470.02
2018-09-20T05:49:07.254Z,101477.23
2018-09-20T05:51:36.434Z,101475.07
2018-09-20T05:54:05.616Z,101475.91
2018-09-20T05:56:34.802Z,101473.70
2018-09-20T05:59:03.984Z,101470.48
2018-09-20T06:01:32.954Z,101477.05
2018-09-20T06:04:02.162Z,101472.36
2018-09-20T06:06:31.278Z,101472.73
2018-09-20T06:09:00.258Z,101473.67
2018-09-20T06:11:29.277Z,101477.83
2018-09-20T06:13:58.312Z,101476.89
2018-09-20T06:16:27.350Z,101483.79
2018-09-20T06:18:56.475Z,101481.63
2018-09-20T06:21:25.484Z,101488.65
2018-09-20T06:23:54.486Z,101483.36
2018-09-20T06:26:23.799Z,101487.85
2018-09-20T06:28:52.762Z,101482.41
2018-09-20T06:31:21.767Z,101490.91
2018-09-20T06:33:50.743Z,101482.62
2018-09-20T06:36:20.282Z,101479.67
2018-09-20T06:38:49.267Z,101483.27
2018-09-20T06:41:18.252Z,101486.84
2018-09-20T06:43:47.239Z,101488.53
2018-09-20T06:46:16.243Z,101488.58
2018-09-20T06:48:45.234Z,101485.05
2018-09-20T06:51:14.475Z,101484.85
2018-09-20T06:53:43.476Z,101479.29
2018-09-20T06:56:12.512Z,101484.95
2018-09-20T06:58:41.799Z,101479.94
2018-09-20T07:01:10.804Z,101475.14
2018-09-20T07:03:40.295Z,101485.81
2018-09-20T07:06:09.295Z,101484.04
2018-09-20T07:08:38.410Z,101487.13
2018-09-20T07:11:07.534Z,101485.91
2018-09-20T07:13:36.798Z,101490.61
2018-09-20T07:16:06.566Z,101486.50
2018-09-20T07:18:35.752Z,101486.98
2018-09-20T07:21:05.047Z,101486.42
2018-09-20T07:23:34.023Z,101494.19
2018-09-20T07:26:03.138Z,101488.78
2018-09-20T07:28:32.434Z,101488.97
2018-09-20T07:31:01.411Z,101496.25
2018-09-20T07:33:30.641Z,101491.60
2018-09-20T07:35:59.814Z,101498.06
2018-09-20T07:38:29.098Z,101499.37
2018-09-20T07:40:58.082Z,101503.16
2018-09-20T07:43:27.077Z,101496.84
2018-09-20T07:45:56.204Z,101493.23
2018-09-20T07:48:25.188Z,101489.20
2018-09-20T07:50:54.394Z,101493.73
2018-09-20T07:53:23.410Z,101494.64
2018-09-20T07:55:52.417Z,101496.25
2018-09-20T07:58:21.404Z,101495.07
2018-09-20T08:00:50.738Z,101493.83
2018-09-20T08:03:20.674Z,101493.77
2018-09-20T08:05:49.962Z,101488.19
2018-09-20T08:08:19.505Z,101491.98
2018-09-20T08:10:48.445Z,101500.84
2018-09-20T08:13:17.536Z,101488.86
2018-09-20T08:15:46.529Z,101489.15
2018-09-20T08:18:15.554Z,101494.70
2018-09-20T08:20:44.540Z,101495.67
2018-09-20T08:23:13.631Z,101493.45
2018-09-20T08:25:42.734Z,101486.73
2018-09-20T08:28:12.003Z,101492.92
2018-09-20T08:30:40.996Z,101489.50
2018-09-20T08:33:10.048Z,101492.71
2018-09-20T08:35:39.020Z,101486.99
2018-09-20T08:38:08.372Z,101486.41
2018-09-20T08:40:43.671Z,101489.28
2018-09-20T08:43:12.660Z,101481.11
2018-09-20T08:45:41.707Z,101487.09
2018-09-20T08:48:10.714Z,101479.02
2018-09-20T08:50:39.802Z,101479.18
2018-09-20T08:53:08.780Z,101475.06
2018-09-20T08:55:37.969Z,101479.83
2018-09-20T08:58:07.213Z,101483.36
2018-09-20T09:00:36.407Z,101479.70
2018-09-20T09:03:05.407Z,101478.69
2018-09-20T09:05:34.650Z,101479.45
2018-09-20T09:08:03.692Z,101478.35
2018-09-20T09:10:32.787Z,101476.47
2018-09-20T09:13:01.977Z,101476.00
2018-09-20T09:15:30.948Z,101473.89
2018-09-20T09:18:00.161Z,101471.98
2018-09-20T09:20:29.174Z,101473.84
2018-09-20T09:22:58.482Z,101469.39
2018-09-20T09:25:27.470Z,101472.53
2018-09-20T09:27:56.770Z,101464.84
2018-09-20T09:30:25.784Z,101468.48
2018-09-20T09:32:55.484Z,101460.30
2018-09-20T09:35:24.500Z,101450.42
2018-09-20T09:37:53.720Z,101446.77
2018-09-20T09:40:22.783Z,101438.19
2018-09-20T09:42:52.607Z,101436.48
2018-09-20T09:45:21.708Z,101437.73
2018-09-20T09:47:51.000Z,101435.34
2018-09-20T09:50:19.967Z,101434.39
2018-09-20T09:52:49.158Z,101430.45
2018-09-20T09:55:18.343Z,101427.68
2018-09-20T09:57:54.502Z,101425.31
2018-09-20T10:00:28.750Z,101419.16
2018-09-20T10:02:58.739Z,101412.05
2018-09-20T10:05:27.920Z,101410.35
2018-09-20T10:07:56.875Z,101400.31
2018-09-20T10:10:25.849Z,101404.56
2018-09-20T10:12:54.915Z,101399.67
2018-09-20T10:15:23.912Z,101393.09
2018-09-20T10:17:52.886Z,101396.34
2018-09-20T10:20:21.876Z,101394.86
2018-09-20T10:22:50.871Z,101388.79
2018-09-20T10:25:19.966Z,101389.34
2018-09-20T10:27:48.992Z,101384.75
2018-09-20T10:30:18.016Z,101381.44
2018-09-20T10:32:47.006Z,101373.83
2018-09-20T10:35:16.269Z,101379.31
2018-09-20T10:37:45.274Z,101372.89
2018-09-20T10:40:14.792Z,101369.34
2018-09-20T10:42:44.755Z,101366.17
2018-09-20T10:45:14.243Z,101366.58
2018-09-20T10:47:43.466Z,101354.44
2018-09-20T10:50:12.466Z,101354.28
2018-09-20T10:52:41.702Z,101346.14
2018-09-20T10:55:10.986Z,101338.33
2018-09-20T10:57:40.110Z,101339.19
2018-09-20T11:00:09.254Z,101335.24
2018-09-20T11:02:38.476Z,101333.42
2018-09-20T11:05:07.593Z,101329.50
2018-09-20T11:07:37.812Z,101329.50
2018-09-20T11:10:06.955Z,101327.06
2018-09-20T11:12:36.394Z,101320.73
2018-09-20T11:15:05.965Z,101324.41
2018-09-20T11:17:34.945Z,101317.19
2018-09-20T11:20:04.361Z,101315.22
2018-09-20T11:22:33.355Z,101314.16
2018-09-20T11:25:02.359Z,101310.56
2018-09-20T11:27:31.623Z,101297.66
2018-09-20T11:30:00.831Z,101300.30
2018-09-20T11:32:30.095Z,101298.88
2018-09-20T11:34:59.299Z,101292.13
2018-09-20T11:37:28.328Z,101293.12
2018-09-20T11:39:57.417Z,101293.89
2018-09-20T11:42:26.650Z,101287.48
2018-09-20T11:44:55.650Z,101284.73
2018-09-20T11:47:24.691Z,101271.31
2018-09-20T11:49:53.747Z,101275.05
2018-09-20T11:52:22.766Z,101263.16
2018-09-20T11:54:51.798Z,101256.41
2018-09-20T11:57:20.843Z,101258.73
2018-09-20T11:59:50.155Z,101255.55
2018-09-20T12:02:19.218Z,101259.25
2018-09-20T12:04:48.273Z,101255.77
2018-09-20T12:07:17.283Z,101246.94
2018-09-20T12:09:46.283Z,101243.39
2018-09-20T12:12:15.257Z,101243.02
2018-09-20T12:14:44.261Z,101234.23
2018-09-20T12:17:13.359Z,101222.80
2018-09-20T12:19:42.330Z,101223.03
2018-09-20T12:22:11.327Z,101215.89
2018-09-20T12:24:40.363Z,101217.46
2018-09-20T12:27:09.586Z,101203.21
2018-09-20T12:29:38.649Z,101209.11
2018-09-20T12:32:07.828Z,101200.70
2018-09-20T12:34:36.889Z,101195.48
2018-09-20T12:37:06.129Z,101185.81
2018-09-20T12:39:35.366Z,101192.06
2018-09-20T12:42:04.413Z,101188.09
2018-09-20T12:44:33.495Z,101182.61
2018-09-20T12:47:02.518Z,101180.25
2018-09-20T12:49:31.553Z,101175.89
2018-09-20T12:52:00.531Z,101172.84
2018-09-20T12:54:29.737Z,101161.56
2018-09-20T12:56:59.180Z,101172.63
2018-09-20T12:59:28.408Z,101168.83
2018-09-20T13:01:57.413Z,101169.74
2018-09-20T13:04:26.599Z,101161.16
2018-09-20T13:06:55.621Z,101158.16
2018-09-20T13:09:24.609Z,101160.14
2018-09-20T13:11:53.675Z,101153.13
2018-09-20T13:14:22.646Z,101157.97
2018-09-20T13:16:51.614Z,101151.69
2018-09-20T13:19:21.343Z,101146.20
2018-09-20T13:21:50.392Z,101138.53
2018-09-20T13:24:19.378Z,101135.45
2018-09-20T13:26:48.430Z,101138.89
2018-09-20T13:29:17.422Z,101140.09
2018-09-20T13:31:46.536Z,101136.98
2018-09-20T13:34:15.695Z,101135.60
2018-09-20T13:36:44.887Z,101126.66
2018-09-20T13:39:14.167Z,101131.73
2018-09-20T13:41:45.046Z,101121.38
2018-09-20T13:44:14.067Z,101130.08
2018-09-20T13:46:43.034Z,101118.13
2018-09-20T13:49:12.024Z,101120.12
2018-09-20T13:51:41.043Z,101118.20
2018-09-20T13:54:10.070Z,101113.59
2018-09-20T13:56:39.115Z,101104.48
2018-09-20T13:59:08.166Z,101119.45
2018-09-20T14:01:37.297Z,101114.27
2018-09-20T14:04:06.580Z,101107.66
2018-09-20T14:06:35.934Z,101101.70
2018-09-20T14:09:08.422Z,101097.97
2018-09-20T14:11:38.003Z,101100.73
2018-09-20T14:14:07.095Z,101099.61
2018-09-20T14:16:36.211Z,101084.84
2018-09-20T14:19:05.288Z,101083.53
2018-09-20T14:21:34.432Z,101080.75
2018-09-20T14:24:03.423Z,101076.23
2018-09-20T14:26:32.605Z,101076.19
2018-09-20T14:29:02.015Z,101070.30
2018-09-20T14:31:31.246Z,101066.62
2018-09-20T14:34:00.501Z,101071.17
2018-09-20T14:36:29.520Z,101070.73
2018-09-20T14:38:58.866Z,101071.70
2018-09-20T14:41:27.932Z,101071.91
2018-09-20T14:43:56.942Z,101058.53
2018-09-20T14:46:25.995Z,101057.31
2018-09-20T14:48:55.119Z,101057.23
2018-09-20T14:51:24.324Z,101063.38
2018-09-20T14:53:53.523Z,101066.73
2018-09-20T14:56:22.528Z,101066.38
2018-09-20T14:58:51.735Z,101059.74
2018-09-20T15:01:20.805Z,101058.95
2018-09-20T15:03:50.206Z,101054.95
2018-09-20T15:06:19.376Z,101055.00
2018-09-20T15:08:48.354Z,101057.61
2018-09-20T15:11:17.583Z,101060.33
2018-09-20T15:13:46.696Z,101056.56
2018-09-20T15:16:15.907Z,101054.66
2018-09-20T15:18:44.872Z,101057.17
2018-09-20T15:21:13.854Z,101055.28
2018-09-20T15:23:43.131Z,101051.64
2018-09-20T15:26:12.119Z,101051.45
2018-09-20T15:28:41.091Z,101048.30
2018-09-20T15:31:10.210Z,101045.36
2018-09-20T15:33:39.402Z,101041.26
2018-09-20T15:36:08.598Z,101045.92
2018-09-20T15:38:37.626Z,101053.28
2018-09-20T15:41:06.641Z,101044.84
2018-09-20T15:43:35.863Z,101042.05
2018-09-20T15:46:04.988Z,101042.08
2018-09-20T15:48:33.982Z,101043.92
2018-09-20T15:51:03.316Z,101039.00
2018-09-20T15:53:32.585Z,101042.05
2018-09-20T15:56:01.873Z,101035.53
2018-09-20T15:58:32.059Z,101031.78
2018-09-20T16:01:01.360Z,101038.70
2018-09-20T16:03:37.553Z,101034.44
2018-09-20T16:06:07.156Z,101032.77
2018-09-20T16:08:36.930Z,101034.53
2018-09-20T16:11:06.107Z,101034.62
2018-09-20T16:13:35.327Z,101035.34
2018-09-20T16:16:04.474Z,101026.08
2018-09-20T16:18:33.631Z,101024.38
2018-09-20T16:21:03.300Z,101024.75
2018-09-20T16:23:32.826Z,101026.68
2018-09-20T16:26:02.113Z,101021.83
2018-09-20T16:28:51.928Z,101021.91
2018-09-20T16:32:45.622Z,101020.30
2018-09-20T16:35:40.059Z,101009.86
2018-09-20T16:38:24.383Z,101017.11
2018-09-20T16:40:55.701Z,101010.74
2018-09-20T16:43:24.824Z,101014.02
2018-09-20T16:45:54.180Z,101020.32
2018-09-20T16:48:23.458Z,101021.16
2018-09-20T16:50:52.711Z,101015.07
2018-09-20T16:53:21.983Z,101012.52
2018-09-20T16:55:51.197Z,101009.27
2018-09-20T16:58:20.472Z,101011.22
2018-09-20T17:00:49.599Z,101011.42
2018-09-20T17:03:19.226Z,101009.91
2018-09-20T17:05:48.514Z,101015.50
2018-09-20T17:08:17.596Z,101011.64
2018-09-20T17:11:18.305Z,101013.99
2018-09-20T17:13:47.612Z,101015.79
2018-09-20T17:16:16.895Z,101016.11
2018-09-20T17:18:46.193Z,101017.61
2018-09-20T17:21:15.337Z,101018.58
2018-09-20T17:23:45.535Z,101016.81
2018-09-20T17:26:15.303Z,101017.14
2018-09-20T17:28:45.546Z,101018.95
2018-09-20T17:31:14.810Z,101012.34
2018-09-20T17:33:43.959Z,101008.20
2018-09-20T17:36:15.099Z,101008.14
2018-09-20T17:38:46.421Z,101008.83
2018-09-20T17:41:20.415Z,101010.17
2018-09-20T17:43:52.436Z,101010.64
2018-09-20T17:46:22.876Z,101009.09
2018-09-20T17:48:53.817Z,101009.00
2018-09-20T17:51:23.944Z,101010.19
2018-09-20T17:53:54.837Z,101003.20
2018-09-20T17:56:25.995Z,101001.11
2018-09-20T17:58:56.551Z,101007.27
2018-09-20T18:01:27.206Z,101008.29
2018-09-20T18:03:57.154Z,101001.69
2018-09-20T18:06:27.418Z,101008.22
2018-09-20T18:08:57.127Z,101012.73
2018-09-20T18:11:27.064Z,101012.80
2018-09-20T18:13:57.556Z,101015.06
2018-09-20T18:16:26.651Z,101011.34
2018-09-20T18:18:56.559Z,101013.91
2018-09-20T18:21:26.086Z,101015.21
2018-09-20T18:23:55.484Z,101007.92
2018-09-20T18:26:25.810Z,101013.22
2018-09-20T18:28:57.823Z,101006.56
2018-09-20T18:31:28.418Z,101009.42
2018-09-20T18:33:59.232Z,101005.30
2018-09-20T18:36:29.584Z,101011.91
2018-09-20T18:38:58.668Z,101004.90
2018-09-20T18:41:27.860Z,101010.40
2018-09-20T18:43:56.987Z,101013.58
2018-09-20T18:46:26.162Z,101008.30
2018-09-20T18:48:57.382Z,101003.77
2018-09-20T18:51:27.732Z,101001.66
2018-09-20T18:53:56.762Z,101007.57
2018-09-20T18:56:26.698Z,101002.66
2018-09-20T18:58:57.149Z,101005.30
2018-09-20T19:01:26.337Z,101009.41
2018-09-20T19:03:55.596Z,101003.44
2018-09-20T19:06:26.225Z,101003.59
2018-09-20T19:08:56.228Z,101004.77
2018-09-20T19:11:25.579Z,100999.38
2018-09-20T19:13:55.350Z,100999.22
2018-09-20T19:16:25.329Z,101003.27
2018-09-20T19:18:55.288Z,101001.43
2018-09-20T19:21:24.400Z,101002.75
2018-09-20T19:23:54.738Z,101001.84
2018-09-20T19:26:25.362Z,101003.16
2018-09-20T19:28:55.074Z,101001.38
2018-09-20T19:31:25.334Z,100988.50
2018-09-20T19:33:54.934Z,100993.77
2018-09-20T19:36:24.388Z,100995.47
2018-09-20T19:38:54.330Z,100993.59
2018-09-20T19:41:24.557Z,100987.23
2018-09-20T19:43:55.118Z,100987.33
2018-09-20T19:46:25.551Z,100986.36
2018-09-20T19:48:56.242Z,100985.16
2018-09-20T19:51:27.388Z,100984.22
2018-09-20T19:53:56.483Z,100986.25
2018-09-20T19:56:28.173Z,100984.78
2018-09-20T19:58:58.005Z,100980.48
2018-09-20T20:01:28.955Z,100988.05
2018-09-20T20:03:58.942Z,100987.81
2018-09-20T20:06:29.618Z,100985.63
2018-09-20T20:08:58.699Z,100986.06
2018-09-20T20:11:29.105Z,100987.73
2018-09-20T20:13:59.911Z,100977.55
2018-09-20T20:16:29.766Z,100973.45
2018-09-20T20:18:58.816Z,100983.48
2018-09-20T20:21:29.277Z,100975.39
2018-09-20T20:23:59.840Z,100978.31
2018-09-20T20:26:30.211Z,100977.14
2018-09-20T20:28:59.215Z,100977.41
2018-09-20T20:31:29.482Z,100980.45
2018-09-20T20:33:59.012Z,100974.78
2018-09-20T20:36:29.022Z,100979.20
2018-09-20T20:38:58.190Z,100977.87
2018-09-20T20:41:27.287Z,100969.66
2018-09-20T20:43:57.432Z,100968.06
2018-09-20T20:46:27.608Z,100968.41
2018-09-20T20:48:56.725Z,100967.16
2018-09-20T20:51:26.340Z,100969.98
2018-09-20T20:53:55.618Z,100965.70
2018-09-20T20:56:26.433Z,100962.53
2018-09-20T20:58:55.947Z,100958.08
2018-09-20T21:01:26.448Z,100956.77
2018-09-20T21:03:55.526Z,100951.87
2018-09-20T21:06:27.088Z,100950.31
2018-09-20T21:08:56.904Z,100953.19
2018-09-20T21:11:27.063Z,100946.97
2018-09-20T21:13:56.390Z,100956.60
2018-09-20T21:16:26.937Z,100947.91
2018-09-20T21:18:57.279Z,100946.34
2018-09-20T21:21:26.997Z,100944.69
2018-09-20T21:23:57.184Z,100938.39
2018-09-20T21:26:26.953Z,100939.14
2018-09-20T21:28:57.325Z,100936.42
2018-09-20T21:31:27.074Z,100930.70
2018-09-20T21:33:58.392Z,100931.02
2018-09-20T21:36:28.880Z,100932.98
2018-09-20T21:38:57.874Z,100926.12
2018-09-20T21:41:28.412Z,100932.11
2018-09-20T21:43:58.971Z,100931.71
2018-09-20T21:46:28.478Z,100919.00
2018-09-20T21:48:58.890Z,100917.70
2018-09-20T21:51:27.899Z,100919.52
2018-09-20T21:53:58.005Z,100918.41
2018-09-20T21:56:27.794Z,100911.28
2018-09-20T21:58:58.065Z,100905.88
2018-09-20T22:01:32.242Z,100908.96
2018-09-20T22:04:05.030Z,100906.59
2018-09-20T22:06:36.843Z,100899.17
2018-09-20T22:09:11.575Z,100902.12
2018-09-20T22:11:41.783Z,100898.69
2018-09-20T22:14:12.511Z,100889.13
2018-09-20T22:16:41.614Z,100902.44
2018-09-20T22:19:10.725Z,100896.41
2018-09-20T22:21:40.038Z,100901.13
2018-09-20T22:24:09.363Z,100895.49
2018-09-20T22:26:38.642Z,100891.13
2018-09-20T22:29:07.668Z,100889.20
2018-09-20T22:31:36.710Z,100881.33
2018-09-20T22:34:05.694Z,100879.38
2018-09-20T22:36:34.664Z,100881.74
2018-09-20T22:39:03.982Z,100880.23
2018-09-20T22:41:33.233Z,100878.19
2018-09-20T22:44:02.239Z,100880.94
2018-09-20T22:46:31.223Z,100877.74
2018-09-20T22:49:00.266Z,100879.40
2018-09-20T22:51:29.258Z,100883.74
2018-09-20T22:53:58.292Z,100876.55
2018-09-20T22:56:27.275Z,100885.94
2018-09-20T22:58:56.279Z,100876.89
2018-09-20T23:01:25.464Z,100875.59
2018-09-20T23:03:54.684Z,100879.75
2018-09-20T23:06:23.673Z,100882.70
2018-09-20T23:08:52.721Z,100879.42
2018-09-20T23:11:21.734Z,100880.84
2018-09-20T23:13:50.767Z,100869.23
2018-09-20T23:16:19.746Z,100858.05
2018-09-20T23:18:48.847Z,100867.28
2018-09-20T23:21:17.853Z,100870.14
2018-09-20T23:23:46.934Z,100871.65
2018-09-20T23:26:16.019Z,100865.20
2018-09-20T23:28:45.243Z,100867.08
2018-09-20T23:31:14.571Z,100857.00
2018-09-20T23:33:43.871Z,100855.88
2018-09-20T23:36:13.330Z,100855.28
2018-09-20T23:38:42.369Z,100851.11
2018-09-20T23:41:11.374Z,100845.13
2018-09-20T23:43:40.669Z,100845.71
2018-09-20T23:46:09.875Z,100843.28
2018-09-20T23:48:38.941Z,100843.79
2018-09-20T23:51:08.040Z,100843.91
2018-09-20T23:53:37.071Z,100834.13
2018-09-20T23:56:06.091Z,100827.48
2018-09-20T23:58:35.623Z,100836.06
